Time;durP1;ratioP1;P1;durP2;ratioP2;P2;SDS_P1;SDS_P2;PMS_P1;PMS_P2;Temp;Humidity;BMP_temperature;BMP_pressure;BME280_temperature;BME280_humidity;BME280_pressure;Samples;Min_cycle;Max_cycle;Signal;HPM_P1;HPM_P2
2022/02/03 00:02:22;;;;;;;62.83;36.47;;;;;;;-0.12;92.63;100122.92;1482424;88;22721;-82
2022/02/03 00:04:55;;;;;;;58.00;34.90;;;;;;;-0.16;93.10;100121.44;1479113;88;21610;-82
2022/02/03 00:07:23;;;;;;;57.63;33.83;;;;;;;-0.15;93.20;100132.20;1484843;88;21402;-82
2022/02/03 00:26:23;;;;;;;54.87;33.93;;;;;;;0.31;92.70;100172.52;1461765;88;21625;-83
2022/02/03 00:28:51;;;;;;;58.03;35.03;;;;;;;0.37;92.59;100168.26;1486373;87;22512;-84
2022/02/03 00:31:46;;;;;;;57.57;36.00;;;;;;;0.39;92.28;100174.22;1484332;87;23553;-84
2022/02/03 00:34:17;;;;;;;60.43;35.00;;;;;;;0.42;92.17;100177.95;1478231;88;21817;-84
2022/02/03 00:50:30;;;;;;;63.70;37.43;;;;;;;0.60;91.76;100213.80;1465137;88;21982;-81
2022/02/03 00:52:56;;;;;;;69.93;38.13;;;;;;;0.59;91.41;100212.12;1461436;88;23058;-81
2022/02/03 00:55:24;;;;;;;65.00;37.50;;;;;;;0.56;91.41;100211.48;1446840;90;21908;-81
2022/02/03 00:57:53;;;;;;;64.27;36.67;;;;;;;0.58;91.53;100219.58;1406554;92;21704;-80
2022/02/03 01:00:21;;;;;;;59.33;36.70;;;;;;;0.63;91.45;100217.98;1405090;93;22146;-83
2022/02/03 01:02:53;;;;;;;62.03;36.57;;;;;;;0.65;91.62;100213.54;1454306;90;21671;-84
2022/02/03 01:05:20;;;;;;;60.70;37.00;;;;;;;0.65;91.61;100220.88;1450550;89;21784;-84
2022/02/03 01:07:50;;;;;;;64.73;33.37;;;;;;;0.64;91.46;100227.03;1449466;90;21843;-83
2022/02/03 01:10:30;;;;;;;54.05;32.35;;;;;;;0.64;91.29;100230.11;1449730;90;22683;-83
2022/02/03 01:13:12;;;;;;;52.50;30.70;;;;;;;0.65;91.20;100233.08;1449398;90;21692;-81
2022/02/03 01:45:15;;;;;;;28.70;17.95;;;;;;;0.83;91.14;100265.86;1407513;89;21861;-81
2022/02/03 01:52:51;;;;;;;28.50;17.50;;;;;;;0.73;90.14;100274.31;1461365;89;21485;-82
2022/02/03 01:55:24;;;;;;;29.47;17.50;;;;;;;0.75;90.24;100283.73;1462266;89;21679;-82
2022/02/03 01:58:05;;;;;;;32.37;20.73;;;;;;;0.76;90.05;100294.52;1459727;89;21736;-82
2022/02/03 02:00:40;;;;;;;34.05;20.40;;;;;;;0.76;89.94;100298.89;1455576;89;21771;-82
2022/02/03 02:03:15;;;;;;;30.23;17.83;;;;;;;0.76;89.92;100294.52;1448669;89;21596;-82
2022/02/03 02:06:22;;;;;;;29.53;18.27;;;;;;;0.71;89.85;100291.80;1452808;89;23541;-82
2022/02/03 02:09:08;;;;;;;26.67;15.07;;;;;;;0.66;89.91;100292.05;1461099;89;21669;-81
2022/02/03 02:12:07;;;;;;;22.40;12.60;;;;;;;0.59;89.47;100297.24;1455428;89;21679;-80
2022/02/03 02:37:49;;;;;;;15.97;8.97;;;;;;;0.81;88.54;100344.59;1440996;89;22788;-80
2022/02/03 02:43:10;;;;;;;14.70;7.70;;;;;;;0.74;87.88;100344.55;1394176;93;21609;-81
2022/02/03 02:46:04;;;;;;;12.30;8.67;;;;;;;0.68;87.84;100346.20;1444814;89;21848;-80
2022/02/03 02:49:01;;;;;;;13.67;8.20;;;;;;;0.62;87.95;100349.16;1424222;90;21769;-81
2022/02/03 02:51:35;;;;;;;12.63;7.63;;;;;;;0.57;87.82;100349.88;1423372;91;21871;-81
2022/02/03 02:54:30;;;;;;;14.67;7.67;;;;;;;0.53;87.66;100348.38;1427690;91;21549;-81
2022/02/03 02:57:15;;;;;;;12.27;8.00;;;;;;;0.48;87.29;100351.69;1429080;91;21642;-81
2022/02/03 03:00:00;;;;;;;12.23;8.50;;;;;;;0.48;87.36;100352.53;1429675;90;21895;-80
2022/02/03 03:02:42;;;;;;;15.00;9.07;;;;;;;0.49;87.32;100348.16;1415671;91;22769;-80
2022/02/03 03:36:02;;;;;;;12.87;8.03;;;;;;;0.55;86.83;100402.53;1427173;91;22359;-83
2022/02/03 03:38:32;;;;;;;15.50;10.37;;;;;;;0.48;87.01;100408.52;1430434;91;22638;-83
2022/02/03 03:41:02;;;;;;;19.37;10.53;;;;;;;0.47;87.15;100411.22;1424647;91;21944;-83
2022/02/03 03:43:42;;;;;;;13.80;8.87;;;;;;;0.48;87.33;100415.49;1413479;91;22791;-83
2022/02/03 03:46:29;;;;;;;15.43;10.37;;;;;;;0.47;87.28;100422.47;1415218;89;21862;-82
2022/02/03 03:49:10;;;;;;;14.57;9.20;;;;;;;0.47;87.38;100419.03;1454908;90;21901;-82
2022/02/03 03:51:49;;;;;;;13.78;8.95;;;;;;;0.44;87.10;100422.17;1451158;90;22707;-82
2022/02/03 03:54:31;;;;;;;14.33;9.03;;;;;;;0.43;87.21;100423.11;1453245;90;21506;-82
2022/02/03 03:57:03;;;;;;;14.00;9.35;;;;;;;0.42;87.00;100427.91;1446740;90;21642;-82
2022/02/03 03:59:57;;;;;;;16.17;10.53;;;;;;;0.41;87.15;100432.75;1445228;90;22592;-83
2022/02/03 04:50:56;;;;;;;18.07;11.50;;;;;;;-0.20;86.78;100519.23;1472786;88;21882;-82
2022/02/03 04:56:17;;;;;;;18.10;10.40;;;;;;;-0.22;86.79;100545.77;1471545;87;21654;-85
2022/02/03 05:07:48;;;;;;;14.58;9.80;;;;;;;-0.30;87.02;100568.70;1482841;87;21601;-81
2022/02/03 05:14:16;;;;;;;23.27;12.93;;;;;;;-0.37;86.57;100569.48;1478202;88;22007;-80
2022/02/03 05:17:18;;;;;;;17.40;11.80;;;;;;;-0.35;87.13;100564.19;1439996;90;21468;-81
2022/02/03 05:20:17;;;;;;;15.65;10.63;;;;;;;-0.30;87.22;100579.11;1444303;90;22473;-80
2022/02/03 05:26:11;;;;;;;22.80;12.05;;;;;;;-0.32;87.14;100593.94;1444229;90;20760;-80
2022/02/03 05:32:37;;;;;;;30.60;16.93;;;;;;;-0.31;86.99;100617.30;1429315;90;21614;-80
2022/02/03 05:44:45;;;;;;;34.43;18.57;;;;;;;-0.21;87.32;100651.96;1446601;90;21586;-84
2022/02/03 05:50:06;;;;;;;42.15;24.77;;;;;;;-0.16;86.83;100668.20;1395569;93;21615;-82
2022/02/03 06:08:22;;;;;;;12.17;5.53;;;;;;;-0.17;87.19;100710.72;1447707;90;21342;-85
2022/02/03 06:16:30;;;;;;;8.40;3.93;;;;;;;0.11;86.25;100722.80;1449253;90;21610;-81
2022/02/03 06:21:32;;;;;;;7.67;3.73;;;;;;;0.26;85.55;100724.28;1440610;90;21737;-78
2022/02/03 06:29:12;;;;;;;6.80;3.57;;;;;;;0.40;84.44;100746.16;1450209;90;22611;-79
2022/02/03 06:31:43;;;;;;;6.28;3.25;;;;;;;0.46;84.67;100744.98;1452946;90;21631;-80
2022/02/03 06:34:11;;;;;;;7.62;4.12;;;;;;;0.49;84.53;100746.16;1442781;90;21534;-80
2022/02/03 06:36:41;;;;;;;6.63;3.73;;;;;;;0.49;84.29;100755.28;1448010;90;21416;-80
2022/02/03 06:39:28;;;;;;;6.60;3.27;;;;;;;0.47;83.67;100751.06;1446738;90;21482;-80
2022/02/03 06:41:59;;;;;;;6.27;3.07;;;;;;;0.52;83.61;100754.26;1442249;90;21729;-79
2022/02/03 06:44:56;;;;;;;7.77;3.40;;;;;;;0.55;83.34;100767.16;1416945;92;22522;-79
2022/02/03 06:47:05;;;;;;;6.53;3.83;;;;;;;0.55;83.09;100768.00;1432757;90;21813;-79
2022/02/03 06:49:44;;;;;;;8.03;4.70;;;;;;;0.65;83.41;100771.81;1451210;89;21581;-80
2022/02/03 06:52:16;;;;;;;8.33;3.37;;;;;;;0.65;83.09;100772.28;1460854;89;21568;-80
2022/02/03 06:54:56;;;;;;;8.27;4.17;;;;;;;0.67;83.03;100779.11;1458449;89;22663;-82
2022/02/03 06:57:18;;;;;;;7.50;3.83;;;;;;;0.71;83.28;100779.79;1462843;89;21753;-82
2022/02/03 06:59:51;;;;;;;8.63;4.00;;;;;;;0.78;83.51;100777.28;1461738;89;22540;-82
2022/02/03 07:02:09;;;;;;;7.07;4.33;;;;;;;0.77;83.15;100775.58;1464564;89;21679;-82
2022/02/03 07:04:45;;;;;;;7.10;4.10;;;;;;;0.79;82.85;100775.52;1465111;89;21519;-82
2022/02/03 07:07:06;;;;;;;8.67;3.47;;;;;;;0.78;82.89;100771.23;1462601;89;21480;-82
2022/02/03 07:09:33;;;;;;;7.90;3.13;;;;;;;0.81;82.83;100775.82;1455392;89;21651;-82
2022/02/03 07:12:03;;;;;;;6.37;3.40;;;;;;;0.88;82.78;100778.48;1444145;89;21673;-81
2022/02/03 07:14:32;;;;;;;12.60;3.90;;;;;;;0.86;82.35;100778.18;1463148;89;22808;-80
2022/02/03 07:17:00;;;;;;;8.20;4.57;;;;;;;0.87;82.33;100779.42;1459079;89;21723;-80
2022/02/03 07:19:27;;;;;;;7.67;3.93;;;;;;;0.93;82.56;100778.27;1456706;89;21443;-80
2022/02/03 07:21:54;;;;;;;8.23;4.10;;;;;;;0.94;81.78;100773.42;1438721;89;21734;-81
2022/02/03 07:24:22;;;;;;;6.30;3.53;;;;;;;1.01;82.19;100780.03;1459259;89;23541;-81
2022/02/03 07:26:49;;;;;;;6.43;3.30;;;;;;;1.04;81.38;100784.25;1456743;89;21853;-81
2022/02/03 07:29:16;;;;;;;6.63;3.80;;;;;;;1.09;80.92;100786.14;1465315;89;21781;-81
2022/02/03 07:31:43;;;;;;;9.23;4.97;;;;;;;1.17;80.40;100790.97;1458785;89;21693;-81
2022/02/03 07:34:13;;;;;;;5.60;3.50;;;;;;;1.23;80.18;100796.70;1461819;89;21590;-81
2022/02/03 07:36:39;;;;;;;5.50;3.67;;;;;;;1.38;79.11;100802.05;1463197;89;21615;-81
2022/02/03 07:39:07;;;;;;;5.40;3.07;;;;;;;1.43;77.59;100802.66;1466563;89;22068;-81
2022/02/03 07:41:34;;;;;;;4.03;3.00;;;;;;;1.56;76.92;100805.02;1465548;88;21687;-81
2022/02/03 07:44:01;;;;;;;8.33;3.13;;;;;;;1.62;73.89;100810.37;1455572;89;21579;-80
2022/02/03 07:46:30;;;;;;;5.83;3.10;;;;;;;1.74;74.20;100811.02;1462324;89;23217;-81
2022/02/03 07:48:58;;;;;;;4.87;2.40;;;;;;;1.82;74.04;100814.55;1445587;89;21790;-80
2022/02/03 07:51:26;;;;;;;8.37;3.57;;;;;;;1.77;71.71;100815.61;1441107;90;23621;-82
2022/02/03 07:53:53;;;;;;;7.33;3.07;;;;;;;1.78;72.10;100816.02;1451271;90;21719;-82
2022/02/03 07:56:20;;;;;;;6.80;3.83;;;;;;;1.76;71.03;100823.07;1443737;90;21557;-79
2022/02/03 07:58:47;;;;;;;7.30;4.57;;;;;;;1.84;72.04;100823.11;1449621;90;21533;-82
2022/02/03 08:01:14;;;;;;;5.37;3.67;;;;;;;1.79;70.96;100831.20;1437791;90;21697;-80
2022/02/03 08:03:44;;;;;;;5.10;3.43;;;;;;;1.79;70.96;100831.20;1443993;90;22692;-80
2022/02/03 08:06:21;;;;;;;6.50;4.00;;;;;;;1.94;71.78;100839.98;1414027;91;21712;-79
2022/02/03 08:08:48;;;;;;;5.70;3.17;;;;;;;1.97;72.22;100839.81;1431376;91;21914;-80
2022/02/03 08:11:23;;;;;;;8.33;3.77;;;;;;;2.11;72.31;100842.98;1431279;91;22899;-80
2022/02/03 08:18:49;;;;;;;5.60;3.30;;;;;;;2.40;69.99;100854.45;1432590;90;22953;-80
2022/02/03 08:21:16;;;;;;;3.80;2.57;;;;;;;2.40;68.86;100859.20;1412876;91;22310;-80
2022/02/03 08:31:25;;;;;;;5.73;3.10;;;;;;;2.35;70.28;100868.22;1436294;90;23004;-80
2022/02/03 08:33:53;;;;;;;9.77;3.80;;;;;;;2.36;69.52;100864.67;1456623;90;21772;-80
2022/02/03 08:36:21;;;;;;;5.50;3.17;;;;;;;2.52;69.53;100865.98;1434126;90;21802;-80
2022/02/03 08:38:56;;;;;;;3.83;2.43;;;;;;;2.46;66.99;100863.25;1442567;89;21723;-80
2022/02/03 08:41:18;;;;;;;10.17;3.83;;;;;;;2.46;66.99;100863.25;1462508;90;21941;-80
2022/02/03 08:43:46;;;;;;;6.47;4.00;;;;;;;2.59;68.71;100867.31;1451293;89;22129;-80
2022/02/03 08:46:15;;;;;;;5.13;3.40;;;;;;;2.59;68.71;100867.31;1458083;89;22143;-80
2022/02/03 08:48:43;;;;;;;6.67;3.67;;;;;;;2.56;69.67;100865.74;1447904;88;22256;-79
2022/02/03 08:51:12;;;;;;;15.13;7.90;;;;;;;2.73;69.61;100865.23;1443383;90;22094;-80
2022/02/03 08:53:56;;;;;;;13.40;4.97;;;;;;;2.80;66.88;100867.44;1453549;90;22026;-80
2022/02/03 08:59:24;;;;;;;20.13;7.30;;;;;;;2.66;67.89;100882.58;1453252;89;22993;-80
2022/02/03 09:37:29;;;;;;;14.47;5.00;;;;;;;3.12;64.71;100934.89;1443039;90;22036;-81
2022/02/03 09:58:14;;;;;;;14.30;5.67;;;;;;;2.92;66.17;100939.09;1423271;92;22093;-81
2022/02/03 10:03:36;;;;;;;2.57;1.37;;;;;;;4.91;61.72;100929.70;1415627;92;22490;-80
2022/02/03 10:06:12;;;;;;;9.57;4.37;;;;;;;5.57;56.20;100929.30;1413230;92;21538;-80
2022/02/03 10:08:49;;;;;;;15.80;5.83;;;;;;;6.51;57.05;100922.39;1421563;92;21522;-81
2022/02/03 10:11:24;;;;;;;6.83;3.87;;;;;;;6.85;53.18;100925.68;1422747;90;21493;-81
2022/02/03 10:13:57;;;;;;;45.67;19.90;;;;;;;6.99;51.83;100924.20;1424360;92;23223;-80
2022/02/03 10:16:32;;;;;;;66.17;25.87;;;;;;;7.90;53.01;100919.58;1430407;91;21456;-80
2022/02/03 10:19:14;;;;;;;9.83;4.53;;;;;;;8.41;51.60;100917.81;1428759;91;21605;-81
2022/02/03 10:21:43;;;;;;;8.37;4.10;;;;;;;8.02;47.92;100914.66;1438493;91;22490;-81
2022/02/03 10:24:19;;;;;;;4.67;2.50;;;;;;;8.34;49.55;100919.21;1426403;92;21420;-81
2022/02/03 10:26:51;;;;;;;8.33;3.17;;;;;;;7.60;47.20;100924.09;1353455;92;21346;-81
2022/02/03 10:29:25;;;;;;;3.93;2.10;;;;;;;7.57;49.60;100926.47;1435218;92;21420;-81
2022/02/03 10:31:52;;;;;;;7.03;3.00;;;;;;;7.83;47.98;100919.70;1494601;91;22393;-81
2022/02/03 10:34:25;;;;;;;25.57;11.43;;;;;;;8.07;47.54;100921.73;1413775;92;21611;-82
2022/02/03 10:48:05;;;;;;;7.87;3.87;;;;;;;8.76;47.78;100919.42;1433497;93;21359;-83
2022/02/03 10:50:24;;;;;;;5.30;2.67;;;;;;;8.55;47.14;100914.92;1387503;93;21558;-84
2022/02/03 10:59:12;;;;;;;25.97;15.57;;;;;;;8.42;45.98;100908.93;1404529;93;21616;-83
2022/02/03 11:03:38;;;;;;;13.13;7.33;;;;;;;8.80;45.97;100898.41;1407620;92;21551;-83
2022/02/03 11:08:54;;;;;;;9.63;5.60;;;;;;;8.49;48.36;100890.34;1416873;93;21742;-83
2022/02/03 11:11:21;;;;;;;11.57;7.83;;;;;;;8.73;47.58;100884.05;1395623;93;21668;-82
2022/02/03 11:13:43;;;;;;;6.83;3.50;;;;;;;8.80;48.13;100882.58;1400116;93;21613;-83
2022/02/03 11:16:13;;;;;;;5.13;3.20;;;;;;;9.10;47.95;100879.72;1406225;93;21424;-83
2022/02/03 11:18:42;;;;;;;7.42;5.08;;;;;;;9.17;44.89;100874.27;1410367;93;22526;-83
2022/02/03 11:21:09;;;;;;;18.97;12.33;;;;;;;8.80;46.93;100878.61;1406408;92;21447;-83
2022/02/03 11:23:45;;;;;;;4.67;3.17;;;;;;;9.17;49.24;100878.23;1385774;94;21532;-82
2022/02/03 11:29:16;;;;;;;7.83;4.50;;;;;;;9.19;47.64;100881.11;1336334;92;22173;-83
2022/02/03 11:42:27;;;;;;;4.17;3.03;;;;;;;8.05;46.64;100875.36;1398477;93;22765;-83
2022/02/03 11:45:28;;;;;;;3.20;2.30;;;;;;;8.48;47.40;100878.09;1353210;93;21443;-83
2022/02/03 11:50:27;;;;;;;3.10;2.30;;;;;;;8.35;46.98;100874.75;1472736;92;22639;-83
2022/02/03 12:04:42;;;;;;;4.27;2.57;;;;;;;8.34;46.44;100874.37;1404807;93;21479;-84
2022/02/03 12:12:57;;;;;;;6.97;2.30;;;;;;;8.62;45.16;100877.48;1408967;92;21662;-85
2022/02/03 12:18:43;;;;;;;5.63;3.37;;;;;;;9.06;44.37;100883.56;1406142;92;22044;-84
2022/02/03 12:21:05;;;;;;;2.93;2.13;;;;;;;9.25;45.02;100881.91;1401458;93;21499;-83
2022/02/03 12:26:34;;;;;;;7.30;2.83;;;;;;;9.86;45.19;100881.66;1467270;93;21374;-84
2022/02/03 12:28:58;;;;;;;3.43;2.43;;;;;;;10.26;43.17;100876.38;1388942;93;21583;-85
2022/02/03 12:37:06;;;;;;;3.80;2.63;;;;;;;10.31;42.82;100880.82;1421425;91;21511;-84
2022/02/03 12:40:23;;;;;;;3.43;2.03;;;;;;;10.54;42.10;100887.22;1425894;91;21604;-82
2022/02/03 12:45:17;;;;;;;3.80;2.20;;;;;;;10.44;41.23;100890.31;1430113;91;21911;-82
2022/02/03 12:48:00;;;;;;;3.70;3.17;;;;;;;9.60;40.88;100894.45;1426713;91;23231;-81
2022/02/03 12:50:36;;;;;;;3.67;2.50;;;;;;;10.22;42.01;100890.86;1428443;91;21590;-81
2022/02/03 12:53:04;;;;;;;4.20;2.60;;;;;;;9.98;40.96;100900.91;1435147;91;21431;-84
2022/02/03 12:55:37;;;;;;;3.60;2.37;;;;;;;9.88;41.79;100900.38;1421977;91;22962;-85
2022/02/03 12:58:13;;;;;;;3.60;2.63;;;;;;;9.59;42.78;100912.11;1430593;90;22428;-86
2022/02/03 13:01:02;;;;;;;4.80;2.30;;;;;;;9.85;43.10;100917.00;1431227;91;21358;-84
2022/02/03 13:03:36;;;;;;;4.80;2.67;;;;;;;10.45;43.92;100928.56;1394660;91;21446;-84
2022/02/03 13:06:06;;;;;;;4.10;2.00;;;;;;;10.37;41.82;100926.58;1411905;91;21608;-85
2022/02/03 13:08:45;;;;;;;4.73;2.93;;;;;;;9.95;40.71;100923.16;1429548;91;22444;-84
2022/02/03 13:11:28;;;;;;;4.00;2.20;;;;;;;10.15;40.71;100927.56;1429666;91;22297;-83
2022/02/03 13:19:43;;;;;;;10.53;3.45;;;;;;;9.89;39.27;100923.20;1394132;91;21395;-82
2022/02/03 13:27:25;;;;;;;3.30;2.62;;;;;;;10.25;40.31;100921.02;1428036;91;21484;-82
2022/02/03 13:30:04;;;;;;;4.85;3.95;;;;;;;10.58;41.28;100920.38;1391784;91;21575;-82
2022/02/03 13:32:50;;;;;;;13.70;8.20;;;;;;;10.59;38.62;100922.90;1449069;90;22107;-82
2022/02/03 13:35:17;;;;;;;8.57;6.20;;;;;;;10.91;39.35;100928.95;1415194;90;21441;-82
2022/02/03 13:37:39;;;;;;;3.87;3.03;;;;;;;10.95;38.55;100930.34;1424392;90;22593;-82
2022/02/03 13:40:14;;;;;;;5.50;3.97;;;;;;;11.16;38.73;100932.36;1428566;90;21922;-82
2022/02/03 13:42:50;;;;;;;3.50;2.77;;;;;;;11.58;40.39;100922.80;1430133;91;21553;-82
2022/02/03 13:45:15;;;;;;;6.10;3.37;;;;;;;12.08;39.69;100921.22;1408782;92;21462;-81
2022/02/03 13:47:43;;;;;;;4.30;3.37;;;;;;;12.53;38.90;100917.81;1333365;92;21506;-81
2022/02/03 13:50:24;;;;;;;4.28;3.00;;;;;;;12.64;38.44;100926.90;1393035;92;21365;-81
2022/02/03 13:53:04;;;;;;;3.45;2.60;;;;;;;13.01;38.14;100921.98;1410552;92;21565;-82
2022/02/03 14:28:35;;;;;;;4.50;2.10;;;;;;;8.27;41.11;100919.34;1434819;91;21647;-80
2022/02/03 14:31:05;;;;;;;13.03;2.50;;;;;;;7.82;41.71;100914.05;1426826;90;21575;-80
2022/02/03 14:33:35;;;;;;;5.28;3.52;;;;;;;7.29;43.37;100923.75;1425327;91;21601;-80
2022/02/03 14:36:08;;;;;;;4.80;3.50;;;;;;;6.98;43.50;100923.85;1425440;91;21517;-80
2022/02/03 14:38:51;;;;;;;6.13;2.63;;;;;;;6.86;44.68;100928.70;1424113;90;22571;-81
2022/02/03 14:41:21;;;;;;;5.70;2.50;;;;;;;6.63;45.11;100933.82;1409545;91;21588;-80
2022/02/03 14:43:42;;;;;;;5.17;2.70;;;;;;;6.49;45.00;100934.80;1413042;91;22357;-81
2022/02/03 14:46:14;;;;;;;4.20;2.27;;;;;;;6.41;45.37;100934.97;1433297;91;21373;-80
2022/02/03 14:48:41;;;;;;;7.33;3.10;;;;;;;6.33;45.88;100937.69;1423094;91;21490;-81
2022/02/03 14:51:10;;;;;;;5.00;2.93;;;;;;;6.30;46.65;100940.53;1425793;90;21670;-80
2022/02/03 14:53:55;;;;;;;6.90;3.57;;;;;;;6.27;47.69;100935.48;1432143;91;21590;-80
2022/02/03 14:59:03;;;;;;;4.37;2.17;;;;;;;6.11;47.40;100932.23;1431697;91;21365;-81
2022/02/03 15:01:32;;;;;;;10.67;5.40;;;;;;;6.02;47.70;100925.00;1404837;91;21396;-81
2022/02/03 15:04:03;;;;;;;10.80;6.67;;;;;;;5.85;47.62;100933.53;1430561;90;21372;-81
2022/02/03 15:06:43;;;;;;;10.43;6.35;;;;;;;5.69;48.20;100938.13;1428837;91;21568;-81
2022/02/03 15:11:56;;;;;;;10.43;6.90;;;;;;;5.38;50.81;100931.02;1429265;91;22275;-81
2022/02/03 15:14:09;;;;;;;15.53;6.47;;;;;;;5.23;50.49;100930.70;1431057;91;21579;-81
2022/02/03 15:16:36;;;;;;;10.47;6.03;;;;;;;5.08;51.36;100933.02;1406684;91;22393;-81
2022/02/03 15:19:03;;;;;;;10.00;5.57;;;;;;;4.93;52.13;100937.00;1437008;91;21462;-81
2022/02/03 15:21:30;;;;;;;14.57;7.70;;;;;;;4.80;52.92;100940.03;1421721;91;21506;-81
2022/02/03 15:23:58;;;;;;;20.73;8.27;;;;;;;4.69;53.29;100926.77;1395714;92;21432;-80
2022/02/03 15:26:26;;;;;;;14.13;7.93;;;;;;;4.69;53.29;100926.77;1420756;91;22254;-81
2022/02/03 15:28:54;;;;;;;11.70;7.50;;;;;;;4.60;53.21;100921.94;1433721;91;21527;-81
2022/02/03 15:31:26;;;;;;;12.53;8.13;;;;;;;4.40;53.68;100916.36;1438649;91;21918;-81
2022/02/03 15:33:57;;;;;;;18.50;8.63;;;;;;;4.32;54.14;100922.55;1429295;91;21446;-81
2022/02/03 15:36:20;;;;;;;19.07;9.97;;;;;;;4.32;54.14;100922.55;1421168;91;22303;-81
2022/02/03 15:38:49;;;;;;;61.80;26.47;;;;;;;4.27;55.00;100933.77;1437539;90;22280;-81
2022/02/03 15:41:25;;;;;;;59.27;27.67;;;;;;;4.17;55.41;100933.95;1426210;91;23281;-81
2022/02/03 15:43:51;;;;;;;57.40;26.40;;;;;;;4.02;55.71;100933.11;1424969;91;22210;-81
2022/02/03 15:46:20;;;;;;;59.43;28.97;;;;;;;3.94;56.01;100940.59;1428874;91;22053;-81
2022/02/03 15:49:02;;;;;;;49.93;24.30;;;;;;;3.87;56.18;100944.05;1434428;91;23054;-81
2022/02/03 15:56:16;;;;;;;37.03;19.70;;;;;;;3.83;56.74;100948.64;1427195;91;22195;-81
2022/02/03 15:57:00;;;;;;;54.27;26.47;;;;;;;3.67;57.52;100945.23;1432888;91;22137;-81
2022/02/03 16:16:47;;;;;;;40.87;20.17;;;;;;;3.36;59.07;100944.40;1399739;94;22138;-81
2022/02/03 16:17:52;;;;;;;25.63;14.13;;;;;;;3.28;59.40;100948.39;1420506;91;22910;-81
2022/02/03 16:20:28;;;;;;;33.30;17.20;;;;;;;3.17;60.20;100947.72;1401361;93;23172;-81
2022/02/03 16:22:56;;;;;;;40.73;19.13;;;;;;;3.10;60.00;100948.51;1398223;92;21887;-82
2022/02/03 16:52:36;;;;;;;41.07;25.60;;;;;;;2.68;62.14;100921.24;1427496;91;21717;-81
2022/02/03 16:54:57;;;;;;;36.73;20.90;;;;;;;2.57;62.24;100918.37;1421520;91;21955;-81
2022/02/03 16:57:26;;;;;;;28.77;15.13;;;;;;;2.50;62.38;100918.31;1404852;91;21834;-81
2022/02/03 17:00:09;;;;;;;19.23;11.20;;;;;;;2.42;62.72;100912.22;1413031;92;21766;-81
2022/02/03 17:02:34;;;;;;;20.37;12.30;;;;;;;2.34;63.96;100917.48;1365392;91;22703;-81
2022/02/03 17:05:02;;;;;;;17.13;11.40;;;;;;;2.24;63.73;100914.07;1324896;93;21761;-80
2022/02/03 17:07:29;;;;;;;19.77;12.80;;;;;;;2.17;63.92;100912.70;1385690;92;21530;-81
2022/02/03 17:09:57;;;;;;;22.07;12.70;;;;;;;2.11;64.02;100905.66;1327122;93;21694;-81
2022/02/03 17:12:24;;;;;;;21.50;12.50;;;;;;;2.05;64.16;100903.38;1416916;92;22874;-81
2022/02/03 17:14:52;;;;;;;26.93;14.50;;;;;;;1.98;64.39;100901.06;1366177;90;21394;-81
2022/02/03 17:17:21;;;;;;;28.47;16.47;;;;;;;1.92;65.08;100902.70;1340385;92;21630;-81
2022/02/03 17:19:48;;;;;;;30.43;16.77;;;;;;;1.86;65.22;100902.19;1356769;91;21509;-81
2022/02/03 17:22:26;;;;;;;28.33;15.70;;;;;;;1.83;65.23;100904.95;1357542;91;21650;-80
2022/02/03 17:25:06;;;;;;;23.77;13.17;;;;;;;1.80;65.18;100905.48;1428031;91;21648;-81
2022/02/03 17:27:26;;;;;;;22.53;13.80;;;;;;;1.80;65.07;100909.41;1426544;91;21807;-81
2022/02/03 17:30:03;;;;;;;27.37;12.83;;;;;;;1.77;65.25;100909.56;1431091;91;21842;-81
2022/02/03 18:03:05;;;;;;;19.77;11.67;;;;;;;1.35;66.04;100905.63;1414957;92;22859;-81
2022/02/03 18:35:09;;;;;;;11.47;7.80;;;;;;;0.95;67.68;100895.46;1373108;93;21904;-80
2022/02/03 18:52:00;;;;;;;16.07;10.77;;;;;;;0.64;69.33;100885.23;1410392;91;21671;-80
2022/02/03 18:53:35;;;;;;;19.97;12.70;;;;;;;0.56;69.92;100882.14;1418587;91;24218;-80
2022/02/03 18:56:08;;;;;;;23.97;13.73;;;;;;;0.51;69.56;100891.45;1384873;93;21875;-80
2022/02/03 20:01:41;;;;;;;26.30;14.37;;;;;;;0.23;72.50;100872.36;1403213;93;21664;-78
2022/02/03 20:11:31;;;;;;;25.48;14.07;;;;;;;0.24;72.52;100858.45;1359525;92;23400;-77
2022/02/03 20:13:58;;;;;;;28.07;15.70;;;;;;;0.24;72.34;100861.05;1384089;93;21457;-78
2022/02/03 20:16:26;;;;;;;26.93;16.05;;;;;;;0.26;72.54;100860.96;1391859;93;21649;-77
2022/02/03 20:18:53;;;;;;;25.48;15.48;;;;;;;0.25;72.85;100860.59;1412968;92;21413;-77
2022/02/03 20:21:21;;;;;;;22.43;13.53;;;;;;;0.24;72.82;100849.80;1413207;92;22417;-77
2022/02/03 20:23:48;;;;;;;29.30;16.63;;;;;;;0.25;72.79;100854.92;1415177;92;21655;-77
2022/02/03 20:26:17;;;;;;;25.03;14.87;;;;;;;0.25;72.71;100848.41;1415966;92;21607;-77
2022/02/03 20:28:46;;;;;;;22.57;13.53;;;;;;;0.23;72.83;100842.42;1411129;92;21643;-77
2022/02/03 20:31:14;;;;;;;25.53;15.27;;;;;;;0.26;72.78;100847.95;1404027;93;23156;-77
2022/02/03 20:33:42;;;;;;;23.60;15.23;;;;;;;0.26;72.84;100847.52;1398651;93;22807;-78
2022/02/03 20:36:10;;;;;;;27.55;15.95;;;;;;;0.27;72.77;100840.08;1404265;91;21851;-78
2022/02/03 20:38:38;;;;;;;23.35;13.68;;;;;;;0.26;73.11;100836.23;1422091;91;21387;-78
2022/02/03 20:41:05;;;;;;;29.32;16.37;;;;;;;0.25;72.79;100835.39;1429142;91;21572;-77
2022/02/03 20:43:33;;;;;;;27.90;15.28;;;;;;;0.28;73.13;100840.92;1417103;92;21480;-77
2022/02/03 20:46:02;;;;;;;26.55;15.45;;;;;;;0.28;72.96;100834.41;1415526;92;21429;-77
2022/02/03 20:48:30;;;;;;;20.90;13.87;;;;;;;0.29;73.23;100842.59;1432546;90;21460;-78
2022/02/03 20:50:58;;;;;;;26.20;14.93;;;;;;;0.29;73.46;100836.95;1437062;90;22268;-78
2022/02/03 20:53:26;;;;;;;27.50;16.17;;;;;;;0.30;73.83;100836.49;1453199;92;21645;-78
2022/02/03 20:55:53;;;;;;;25.17;15.00;;;;;;;0.31;73.75;100830.36;1451071;93;21448;-78
2022/02/03 20:58:21;;;;;;;27.62;16.85;;;;;;;0.33;73.68;100832.44;1491046;92;21705;-78
2022/02/03 21:00:54;;;;;;;23.70;13.87;;;;;;;0.32;73.89;100832.91;1371298;92;22293;-78
2022/02/03 21:03:24;;;;;;;27.50;16.57;;;;;;;0.34;74.00;100832.35;1346158;93;21941;-78
2022/02/03 21:05:47;;;;;;;46.27;23.47;;;;;;;0.36;73.97;100833.13;1436421;92;21739;-78
2022/02/03 21:08:17;;;;;;;123.27;45.30;;;;;;;0.36;74.40;100830.53;1309366;95;22423;-78
2022/02/03 21:10:43;;;;;;;126.55;51.28;;;;;;;0.37;74.41;100824.39;1460372;92;22215;-78
2022/02/03 21:13:10;;;;;;;88.65;37.75;;;;;;;0.35;74.89;100823.64;1381579;92;22288;-80
2022/02/03 21:15:39;;;;;;;46.33;24.53;;;;;;;0.36;74.52;100829.69;1364261;90;21253;-80
2022/02/03 21:18:15;;;;;;;39.38;19.85;;;;;;;0.37;74.82;100828.30;1428332;91;21968;-80
2022/02/03 21:20:40;;;;;;;54.90;26.53;;;;;;;0.37;75.16;100825.70;1337859;93;21354;-80
2022/02/03 21:23:10;;;;;;;51.53;25.30;;;;;;;0.37;75.27;100821.79;1362390;91;21796;-80
2022/02/03 21:25:42;;;;;;;67.10;31.68;;;;;;;0.37;75.75;100819.19;1390763;91;21448;-80
2022/02/03 21:28:22;;;;;;;40.40;22.77;;;;;;;0.38;75.58;100820.89;1511262;91;21461;-80
2022/02/03 21:30:45;;;;;;;44.33;22.02;;;;;;;0.39;76.00;100823.87;1355326;91;21407;-80
2022/02/03 21:33:15;;;;;;;46.18;22.32;;;;;;;0.40;76.15;100823.41;1411675;91;22802;-80
2022/02/03 21:35:45;;;;;;;33.90;18.33;;;;;;;0.41;76.33;100818.60;1433617;91;22235;-80
2022/02/03 21:38:12;;;;;;;36.38;18.42;;;;;;;0.42;76.40;100823.72;1430348;91;22058;-78
2022/02/03 21:40:39;;;;;;;30.62;15.48;;;;;;;0.45;76.39;100817.53;1429582;90;21612;-78
2022/02/03 21:43:07;;;;;;;29.37;14.30;;;;;;;0.46;76.82;100824.41;1374757;92;22391;-78
2022/02/03 21:45:36;;;;;;;22.40;11.75;;;;;;;0.47;76.49;100823.98;1391072;92;21429;-78
2022/02/03 21:48:04;;;;;;;21.27;12.30;;;;;;;0.50;77.22;100823.83;1435184;92;21430;-77
2022/02/03 21:50:35;;;;;;;19.00;11.33;;;;;;;0.51;77.13;100821.14;1418993;92;22658;-78
2022/02/03 21:53:05;;;;;;;20.75;12.40;;;;;;;0.53;76.93;100819.78;1406744;92;21976;-78
2022/02/03 21:55:34;;;;;;;19.57;11.17;;;;;;;0.58;76.70;100817.33;1397708;92;22496;-78
2022/02/03 21:58:00;;;;;;;20.20;11.95;;;;;;;0.58;77.48;100816.50;1406650;92;21723;-79
2022/02/03 22:00:27;;;;;;;23.10;11.43;;;;;;;0.59;77.08;100812.97;1390785;92;22464;-79
2022/02/03 22:02:55;;;;;;;19.33;10.93;;;;;;;0.57;77.71;100811.72;1412298;92;21609;-78